Time;durP1;ratioP1;P1;durP2;ratioP2;P2;SDS_P1;SDS_P2;PMS_P1;PMS_P2;Temp;Humidity;BMP_temperature;BMP_pressure;BME280_temperature;BME280_humidity;BME280_pressure;Samples;Min_cycle;Max_cycle;Signal;HPM_P1;HPM_P2
2024/04/14 00:02:11;;;;;;;10.20;7.40;;;;;;;;;;5406041;26;20999;-80
2024/04/14 00:04:37;;;;;;;8.53;7.87;;;;;;;;;;5404798;26;20486;-81
2024/04/14 00:07:03;;;;;;;7.13;6.43;;;;;;;;;;5400244;26;20454;-81
2024/04/14 00:09:29;;;;;;;8.90;7.50;;;;;;;;;;5394034;26;20469;-81
2024/04/14 00:11:55;;;;;;;10.93;7.00;;;;;;;;;;5400156;26;20555;-81
2024/04/14 00:14:23;;;;;;;9.13;6.83;;;;;;;;;;5391917;26;20513;-82
2024/04/14 00:16:49;;;;;;;7.10;6.50;;;;;;;;;;5404809;26;20430;-82
2024/04/14 00:19:20;;;;;;;6.60;6.00;;;;;;;;;;5398865;26;20762;-81
2024/04/14 00:21:46;;;;;;;8.23;6.20;;;;;;;;;;5393134;26;20532;-82
2024/04/14 00:24:12;;;;;;;6.83;6.10;;;;;;;;;;5408182;26;20587;-82
2024/04/14 00:26:38;;;;;;;7.90;5.33;;;;;;;;;;5407544;26;20454;-82
2024/04/14 00:29:04;;;;;;;5.53;5.13;;;;;;;;;;5406064;26;20864;-82
2024/04/14 00:31:32;;;;;;;5.50;5.10;;;;;;;;;;5406038;26;20469;-81
2024/04/14 00:33:58;;;;;;;6.07;5.67;;;;;;;;;;5405550;26;20461;-82
2024/04/14 00:36:24;;;;;;;5.50;5.07;;;;;;;;;;5394216;26;20481;-84
2024/04/14 00:38:50;;;;;;;5.53;5.23;;;;;;;;;;5394167;26;21119;-83
2024/04/14 00:41:16;;;;;;;6.73;4.87;;;;;;;;;;5400314;26;20453;-82
2024/04/14 00:43:42;;;;;;;4.93;4.63;;;;;;;;;;5398162;26;20454;-83
2024/04/14 00:46:08;;;;;;;5.40;4.90;;;;;;;;;;5385011;26;20512;-82
2024/04/14 00:48:34;;;;;;;5.30;5.00;;;;;;;;;;5396132;26;20466;-81
2024/04/14 00:51:00;;;;;;;5.13;4.70;;;;;;;;;;5414179;26;20536;-81
2024/04/14 00:53:26;;;;;;;5.40;4.93;;;;;;;;;;5397914;26;20860;-82
2024/04/14 00:55:53;;;;;;;5.00;4.67;;;;;;;;;;5410447;26;20535;-83
2024/04/14 00:58:20;;;;;;;4.73;4.53;;;;;;;;;;5397543;26;20465;-83
2024/04/14 01:00:46;;;;;;;5.03;4.37;;;;;;;;;;5399613;26;20496;-82
2024/04/14 01:03:12;;;;;;;4.70;4.33;;;;;;;;;;5403342;26;20462;-83
2024/04/14 01:05:38;;;;;;;5.00;4.70;;;;;;;;;;5405485;26;20438;-83
2024/04/14 01:08:04;;;;;;;4.63;4.33;;;;;;;;;;5406348;26;20507;-82
2024/04/14 01:10:32;;;;;;;6.50;4.73;;;;;;;;;;5407719;26;20520;-83
2024/04/14 01:12:58;;;;;;;5.10;4.70;;;;;;;;;;5401488;26;20483;-82
2024/04/14 01:15:24;;;;;;;5.10;4.70;;;;;;;;;;5395787;26;20592;-82
2024/04/14 01:17:50;;;;;;;5.40;5.00;;;;;;;;;;5413846;26;20468;-82
2024/04/14 01:20:16;;;;;;;5.00;4.70;;;;;;;;;;5387264;26;20577;-82
2024/04/14 01:22:42;;;;;;;5.20;4.80;;;;;;;;;;5399775;26;20444;-82
2024/04/14 01:25:09;;;;;;;5.10;4.63;;;;;;;;;;5399714;26;20592;-82
2024/04/14 01:27:36;;;;;;;4.63;4.33;;;;;;;;;;5404104;26;20464;-82
2024/04/14 01:30:05;;;;;;;4.73;4.50;;;;;;;;;;5398061;26;21093;-82
2024/04/14 01:32:33;;;;;;;4.73;4.33;;;;;;;;;;5404216;26;20533;-82
2024/04/14 01:35:00;;;;;;;4.40;4.20;;;;;;;;;;5402948;26;20470;-82
2024/04/14 01:37:26;;;;;;;4.90;4.50;;;;;;;;;;5404519;26;20878;-82
2024/04/14 01:39:52;;;;;;;4.93;4.53;;;;;;;;;;5400651;26;20468;-82
2024/04/14 01:42:18;;;;;;;5.00;4.70;;;;;;;;;;5408090;26;20802;-82
2024/04/14 01:44:44;;;;;;;4.30;4.10;;;;;;;;;;5397833;26;20508;-82
2024/04/14 01:47:10;;;;;;;4.67;4.27;;;;;;;;;;5400255;26;20442;-84
2024/04/14 01:49:36;;;;;;;5.20;4.70;;;;;;;;;;5409049;26;20440;-83
2024/04/14 01:52:02;;;;;;;7.87;5.10;;;;;;;;;;5406635;26;20464;-82
2024/04/14 01:54:28;;;;;;;4.57;4.27;;;;;;;;;;5394891;26;20477;-82
2024/04/14 01:56:54;;;;;;;5.63;4.90;;;;;;;;;;5408821;26;21062;-83
2024/04/14 01:59:20;;;;;;;10.17;4.40;;;;;;;;;;5399638;26;20501;-82
2024/04/14 02:01:46;;;;;;;4.63;4.43;;;;;;;;;;5401290;26;20466;-82
2024/04/14 02:04:12;;;;;;;5.50;5.00;;;;;;;;;;5407300;26;20458;-82
2024/04/14 02:06:38;;;;;;;4.80;4.50;;;;;;;;;;5398263;26;20462;-82
2024/04/14 02:09:04;;;;;;;5.10;4.60;;;;;;;;;;5411220;26;20514;-82
2024/04/14 02:11:30;;;;;;;5.27;4.90;;;;;;;;;;5402978;26;20991;-82
2024/04/14 02:13:57;;;;;;;4.63;4.33;;;;;;;;;;5402583;26;20521;-83
2024/04/14 02:16:23;;;;;;;4.63;4.40;;;;;;;;;;5399244;26;20469;-82
2024/04/14 02:18:48;;;;;;;4.60;4.20;;;;;;;;;;5399686;26;20525;-82
2024/04/14 02:21:15;;;;;;;5.50;5.10;;;;;;;;;;5410218;26;20466;-82
2024/04/14 02:23:41;;;;;;;4.50;4.20;;;;;;;;;;5414482;26;21062;-82
2024/04/14 02:26:07;;;;;;;4.70;4.30;;;;;;;;;;5408022;26;20457;-82
2024/04/14 02:28:33;;;;;;;5.33;5.03;;;;;;;;;;5402554;26;21025;-82
2024/04/14 02:30:59;;;;;;;5.10;4.60;;;;;;;;;;5404038;26;20492;-82
2024/04/14 02:33:26;;;;;;;4.43;4.20;;;;;;;;;;5394051;26;20545;-82
2024/04/14 02:35:55;;;;;;;5.00;4.60;;;;;;;;;;5398691;26;20915;-82
2024/04/14 02:38:21;;;;;;;5.43;4.80;;;;;;;;;;5404031;26;20474;-82
2024/04/14 02:41:00;;;;;;;4.30;3.90;;;;;;;;;;5405067;26;20706;-82
2024/04/14 02:43:26;;;;;;;5.13;3.97;;;;;;;;;;5396496;26;20473;-82
2024/04/14 02:45:52;;;;;;;7.37;4.57;;;;;;;;;;5410611;26;20461;-83
2024/04/14 02:48:19;;;;;;;4.27;3.97;;;;;;;;;;5402688;26;21001;-82
2024/04/14 02:50:45;;;;;;;4.30;4.03;;;;;;;;;;5404632;26;20549;-82
2024/04/14 02:53:11;;;;;;;5.33;4.43;;;;;;;;;;5405785;26;20438;-82
2024/04/14 02:55:37;;;;;;;4.23;4.03;;;;;;;;;;5394194;26;20453;-82
2024/04/14 02:58:04;;;;;;;5.40;4.20;;;;;;;;;;5405997;26;20507;-82
2024/04/14 03:00:29;;;;;;;4.20;3.90;;;;;;;;;;5405359;26;20604;-82
2024/04/14 03:02:55;;;;;;;4.37;3.97;;;;;;;;;;5398149;26;20588;-81
2024/04/14 03:05:22;;;;;;;4.67;4.30;;;;;;;;;;5401568;26;20466;-82
2024/04/14 03:07:48;;;;;;;4.23;4.03;;;;;;;;;;5393477;26;20468;-82
2024/04/14 03:10:14;;;;;;;4.97;4.57;;;;;;;;;;5399906;26;20588;-82
2024/04/14 03:12:40;;;;;;;4.80;4.40;;;;;;;;;;5391048;26;20500;-82
2024/04/14 03:15:06;;;;;;;4.40;4.00;;;;;;;;;;5412247;26;20472;-82
2024/04/14 03:17:33;;;;;;;5.70;4.53;;;;;;;;;;5405067;26;20915;-83
2024/04/14 03:19:59;;;;;;;4.97;4.67;;;;;;;;;;5387491;26;20491;-82
2024/04/14 03:22:25;;;;;;;4.87;4.07;;;;;;;;;;5403905;26;20528;-82
2024/04/14 03:24:51;;;;;;;7.47;4.37;;;;;;;;;;5400029;26;20573;-82
2024/04/14 03:27:17;;;;;;;4.90;4.40;;;;;;;;;;5403639;26;20785;-82
2024/04/14 03:29:45;;;;;;;4.60;4.30;;;;;;;;;;5402851;26;20519;-82
2024/04/14 03:32:11;;;;;;;4.40;4.10;;;;;;;;;;5392853;26;20465;-83
2024/04/14 03:34:37;;;;;;;5.57;4.40;;;;;;;;;;5394352;26;20500;-82
2024/04/14 03:37:06;;;;;;;4.13;3.80;;;;;;;;;;5401649;26;20515;-83
2024/04/14 03:39:32;;;;;;;4.40;4.10;;;;;;;;;;5402221;26;20461;-82
2024/04/14 03:41:59;;;;;;;4.90;4.40;;;;;;;;;;5399215;26;20579;-82
2024/04/14 03:44:28;;;;;;;6.73;4.47;;;;;;;;;;5405786;26;20500;-82
2024/04/14 03:46:54;;;;;;;4.73;4.40;;;;;;;;;;5395168;26;20535;-83
2024/04/14 03:49:20;;;;;;;4.47;4.17;;;;;;;;;;5399557;26;20609;-82
2024/04/14 03:51:46;;;;;;;4.63;4.23;;;;;;;;;;5404761;26;20464;-83
2024/04/14 03:54:12;;;;;;;6.60;4.63;;;;;;;;;;5402686;26;21131;-82
2024/04/14 03:56:38;;;;;;;5.40;5.00;;;;;;;;;;5397122;26;20461;-82
2024/04/14 03:59:04;;;;;;;9.47;4.53;;;;;;;;;;5397385;26;20454;-82
2024/04/14 04:01:30;;;;;;;4.37;4.17;;;;;;;;;;5408733;26;20544;-82
2024/04/14 04:03:57;;;;;;;4.83;4.43;;;;;;;;;;5398949;26;20468;-82
2024/04/14 04:06:23;;;;;;;5.63;4.40;;;;;;;;;;5401355;26;20466;-83
2024/04/14 04:08:49;;;;;;;4.80;4.50;;;;;;;;;;5391269;26;20992;-82
2024/04/14 04:11:15;;;;;;;5.27;4.77;;;;;;;;;;5405918;26;20518;-82
2024/04/14 04:13:41;;;;;;;4.60;4.30;;;;;;;;;;5402375;26;20465;-82
2024/04/14 04:16:07;;;;;;;4.77;4.50;;;;;;;;;;5394866;26;20450;-82
2024/04/14 04:18:34;;;;;;;6.90;5.40;;;;;;;;;;5406474;26;20460;-82
2024/04/14 04:21:01;;;;;;;4.90;4.60;;;;;;;;;;5401113;26;20468;-82
2024/04/14 04:23:29;;;;;;;5.20;4.90;;;;;;;;;;5391813;26;20521;-82
2024/04/14 04:25:56;;;;;;;8.10;5.90;;;;;;;;;;5401988;26;20589;-82
2024/04/14 04:28:22;;;;;;;5.70;5.17;;;;;;;;;;5396744;26;20517;-82
2024/04/14 04:30:49;;;;;;;5.60;5.10;;;;;;;;;;5405546;26;20458;-82
2024/04/14 04:33:15;;;;;;;7.43;5.07;;;;;;;;;;5389996;26;20498;-82
2024/04/14 04:35:50;;;;;;;5.63;5.10;;;;;;;;;;5396951;26;20586;-83
2024/04/14 04:38:16;;;;;;;5.50;5.10;;;;;;;;;;5403492;26;20449;-82
2024/04/14 04:40:42;;;;;;;6.53;5.20;;;;;;;;;;5392963;26;20524;-82
2024/04/14 04:43:08;;;;;;;5.43;4.93;;;;;;;;;;5396655;26;20588;-82
2024/04/14 04:45:34;;;;;;;5.23;4.80;;;;;;;;;;5403677;26;20518;-82
2024/04/14 04:48:00;;;;;;;5.90;5.40;;;;;;;;;;5396302;26;20462;-82
2024/04/14 04:50:26;;;;;;;5.90;5.40;;;;;;;;;;5400210;26;20575;-82
2024/04/14 04:52:52;;;;;;;5.47;4.97;;;;;;;;;;5407881;26;20461;-82
2024/04/14 04:55:18;;;;;;;11.10;5.63;;;;;;;;;;5398879;26;20458;-82
2024/04/14 04:57:46;;;;;;;5.97;5.47;;;;;;;;;;5408015;26;20871;-82
2024/04/14 05:00:12;;;;;;;6.07;5.57;;;;;;;;;;5405731;26;20456;-82
2024/04/14 05:02:38;;;;;;;6.27;5.60;;;;;;;;;;5407688;26;20582;-82
2024/04/14 05:05:04;;;;;;;6.57;5.97;;;;;;;;;;5399844;26;20479;-82
2024/04/14 05:07:32;;;;;;;6.67;6.07;;;;;;;;;;5404975;26;20458;-82
2024/04/14 05:09:58;;;;;;;7.03;6.43;;;;;;;;;;5408546;26;20581;-82
2024/04/14 05:12:24;;;;;;;10.93;6.33;;;;;;;;;;5404006;26;21076;-82
2024/04/14 05:14:50;;;;;;;7.50;5.73;;;;;;;;;;5412360;26;20442;-82
2024/04/14 05:17:17;;;;;;;6.40;6.00;;;;;;;;;;5408955;26;20457;-82
2024/04/14 05:19:43;;;;;;;6.77;6.17;;;;;;;;;;5403397;26;20496;-82
2024/04/14 05:22:09;;;;;;;10.30;6.60;;;;;;;;;;5410038;26;20781;-82
2024/04/14 05:24:34;;;;;;;6.90;6.20;;;;;;;;;;5402051;26;20465;-82
2024/04/14 05:27:01;;;;;;;8.13;6.73;;;;;;;;;;5406601;26;20470;-82
2024/04/14 05:29:27;;;;;;;6.73;6.10;;;;;;;;;;5408844;26;21054;-82
2024/04/14 05:31:53;;;;;;;7.80;7.00;;;;;;;;;;5397251;26;20586;-82
2024/04/14 05:34:19;;;;;;;7.13;6.40;;;;;;;;;;5398561;26;20472;-82
2024/04/14 05:36:46;;;;;;;9.90;7.37;;;;;;;;;;5393816;26;20958;-82
2024/04/14 05:39:12;;;;;;;8.03;7.40;;;;;;;;;;5404057;26;20465;-82
2024/04/14 05:41:38;;;;;;;7.43;6.83;;;;;;;;;;5404858;26;20466;-82
2024/04/14 05:44:04;;;;;;;8.27;7.47;;;;;;;;;;5414410;26;20499;-83
2024/04/14 05:46:29;;;;;;;7.40;6.73;;;;;;;;;;5400360;26;20569;-82
2024/04/14 05:48:56;;;;;;;9.13;8.40;;;;;;;;;;5397727;26;20449;-82
2024/04/14 05:51:22;;;;;;;7.40;6.80;;;;;;;;;;5404655;26;20532;-83
2024/04/14 05:53:51;;;;;;;9.13;6.63;;;;;;;;;;5392017;26;20462;-82
2024/04/14 05:56:16;;;;;;;7.70;7.10;;;;;;;;;;5395212;26;21013;-83
2024/04/14 05:58:42;;;;;;;8.23;7.43;;;;;;;;;;5398551;26;20559;-83
2024/04/14 06:01:09;;;;;;;7.13;6.63;;;;;;;;;;5403513;26;20454;-83
2024/04/14 06:03:35;;;;;;;10.93;7.40;;;;;;;;;;5394949;26;20458;-83
2024/04/14 06:06:01;;;;;;;7.93;7.27;;;;;;;;;;5407891;26;20793;-83
2024/04/14 06:08:27;;;;;;;8.10;7.40;;;;;;;;;;5412104;26;20873;-82
2024/04/14 06:10:53;;;;;;;9.87;7.80;;;;;;;;;;5406879;26;21015;-83
2024/04/14 06:13:19;;;;;;;7.90;7.23;;;;;;;;;;5400644;26;20596;-83
2024/04/14 06:15:45;;;;;;;8.57;7.57;;;;;;;;;;5407255;26;20489;-82
2024/04/14 06:18:11;;;;;;;8.10;7.30;;;;;;;;;;5409947;26;20524;-83
2024/04/14 06:20:40;;;;;;;8.40;7.60;;;;;;;;;;5406129;26;20552;-83
2024/04/14 06:23:06;;;;;;;9.50;8.40;;;;;;;;;;5399169;26;20781;-83
2024/04/14 06:25:33;;;;;;;9.20;8.33;;;;;;;;;;5403967;26;20580;-83
2024/04/14 06:27:59;;;;;;;8.87;7.93;;;;;;;;;;5406263;26;20453;-83
2024/04/14 06:30:25;;;;;;;8.97;8.17;;;;;;;;;;5401665;26;20454;-82
2024/04/14 06:32:51;;;;;;;8.60;7.70;;;;;;;;;;5405375;26;20796;-83
2024/04/14 06:35:17;;;;;;;8.47;7.77;;;;;;;;;;5386812;26;20522;-82
2024/04/14 06:37:44;;;;;;;10.70;7.73;;;;;;;;;;5399248;26;20475;-82
2024/04/14 06:40:10;;;;;;;11.37;8.50;;;;;;;;;;5401875;26;21123;-82
2024/04/14 06:42:39;;;;;;;10.37;8.43;;;;;;;;;;5401400;26;20508;-82
2024/04/14 06:45:06;;;;;;;9.60;8.30;;;;;;;;;;5394333;26;20541;-83
2024/04/14 06:47:32;;;;;;;17.20;8.40;;;;;;;;;;5398347;26;20840;-83
2024/04/14 06:49:58;;;;;;;10.90;8.60;;;;;;;;;;5396074;26;20517;-83
2024/04/14 06:52:24;;;;;;;8.73;7.93;;;;;;;;;;5410947;26;21097;-82
2024/04/14 06:54:50;;;;;;;10.70;7.77;;;;;;;;;;5399032;26;20780;-83
2024/04/14 06:57:17;;;;;;;9.40;8.27;;;;;;;;;;5396469;26;20458;-82
2024/04/14 06:59:43;;;;;;;7.97;7.23;;;;;;;;;;5408188;26;20528;-82
2024/04/14 07:02:09;;;;;;;8.77;7.90;;;;;;;;;;5396598;26;20462;-83
2024/04/14 07:04:36;;;;;;;13.47;9.80;;;;;;;;;;5396350;26;20798;-82
2024/04/14 07:07:02;;;;;;;9.20;8.30;;;;;;;;;;5407298;26;20526;-83
2024/04/14 07:09:28;;;;;;;10.33;9.40;;;;;;;;;;5414632;26;20529;-83
2024/04/14 07:11:54;;;;;;;9.40;8.57;;;;;;;;;;5401051;26;20469;-83
2024/04/14 07:14:20;;;;;;;13.40;8.30;;;;;;;;;;5398001;26;20504;-82
2024/04/14 07:16:46;;;;;;;14.73;11.37;;;;;;;;;;5406470;26;20864;-83
2024/04/14 07:19:12;;;;;;;11.17;9.30;;;;;;;;;;5387275;26;20466;-82
2024/04/14 07:21:42;;;;;;;10.33;9.33;;;;;;;;;;5394526;26;20460;-82
2024/04/14 07:24:08;;;;;;;10.43;8.87;;;;;;;;;;5393500;26;20461;-88
2024/04/14 07:26:34;;;;;;;14.20;9.60;;;;;;;;;;5402697;26;20472;-87
2024/04/14 07:29:00;;;;;;;13.83;8.90;;;;;;;;;;5402798;26;20509;-87
2024/04/14 07:31:26;;;;;;;10.37;9.00;;;;;;;;;;5401232;26;20465;-88
2024/04/14 07:34:01;;;;;;;9.47;8.50;;;;;;;;;;5405317;26;20987;-87
2024/04/14 07:36:27;;;;;;;11.57;8.50;;;;;;;;;;5396002;26;20866;-86
2024/04/14 07:38:53;;;;;;;10.63;9.53;;;;;;;;;;5399360;26;20468;-86
2024/04/14 07:41:20;;;;;;;10.73;8.73;;;;;;;;;;5398657;26;20474;-84
2024/04/14 07:43:49;;;;;;;10.17;9.07;;;;;;;;;;5397199;26;20477;-85
2024/04/14 07:46:15;;;;;;;15.30;8.93;;;;;;;;;;5397971;26;20454;-85
2024/04/14 07:48:42;;;;;;;13.60;9.10;;;;;;;;;;5407747;26;21051;-85
2024/04/14 07:51:08;;;;;;;10.37;9.40;;;;;;;;;;5409505;26;20465;-86
2024/04/14 07:53:34;;;;;;;13.17;9.40;;;;;;;;;;5400395;26;20442;-87
2024/04/14 07:56:00;;;;;;;13.13;8.50;;;;;;;;;;5400252;26;21045;-84
2024/04/14 07:58:27;;;;;;;14.07;8.30;;;;;;;;;;5397677;26;20907;-85
2024/04/14 08:00:53;;;;;;;9.50;8.70;;;;;;;;;;5399981;26;20841;-85
2024/04/14 08:03:19;;;;;;;14.60;9.37;;;;;;;;;;5399723;26;20492;-85
2024/04/14 08:05:45;;;;;;;9.53;8.30;;;;;;;;;;5399101;26;20524;-89
2024/04/14 08:08:12;;;;;;;9.37;8.47;;;;;;;;;;5400039;26;20500;-88
2024/04/14 08:10:37;;;;;;;8.60;7.80;;;;;;;;;;5405072;26;20580;-88
2024/04/14 08:13:04;;;;;;;9.70;8.70;;;;;;;;;;5399126;26;20464;-88
2024/04/14 08:15:30;;;;;;;10.70;8.00;;;;;;;;;;5394767;26;20515;-88
2024/04/14 08:17:59;;;;;;;12.13;7.50;;;;;;;;;;5398000;26;20799;-87
2024/04/14 08:20:25;;;;;;;8.20;7.40;;;;;;;;;;5392315;26;20494;-88
2024/04/14 08:22:51;;;;;;;11.27;9.03;;;;;;;;;;5398890;26;20596;-88
2024/04/14 08:25:17;;;;;;;11.20;7.63;;;;;;;;;;5397640;26;20473;-86
2024/04/14 08:27:43;;;;;;;8.17;7.43;;;;;;;;;;5399631;26;20581;-86
2024/04/14 08:30:09;;;;;;;10.63;7.90;;;;;;;;;;5396333;26;20458;-88
2024/04/14 08:32:35;;;;;;;11.20;7.37;;;;;;;;;;5393260;26;20522;-88
2024/04/14 08:35:03;;;;;;;10.87;7.70;;;;;;;;;;5398933;26;20457;-88
2024/04/14 08:37:29;;;;;;;8.53;7.33;;;;;;;;;;5401203;26;20534;-88
2024/04/14 08:39:55;;;;;;;8.43;7.63;;;;;;;;;;5400838;26;20983;-89
2024/04/14 08:42:22;;;;;;;10.43;7.20;;;;;;;;;;5395093;26;20842;-87
2024/04/14 08:44:49;;;;;;;10.80;7.50;;;;;;;;;;5391392;26;20852;-87
2024/04/14 08:47:18;;;;;;;10.33;5.80;;;;;;;;;;5400520;26;20440;-87
2024/04/14 08:49:44;;;;;;;8.23;6.40;;;;;;;;;;5391830;26;20487;-87
2024/04/14 08:52:11;;;;;;;8.73;6.57;;;;;;;;;;5407759;26;20539;-88
2024/04/14 08:54:38;;;;;;;13.40;7.93;;;;;;;;;;5387687;26;20434;-86
2024/04/14 08:57:05;;;;;;;10.33;7.20;;;;;;;;;;5394913;26;20546;-88
2024/04/14 08:59:32;;;;;;;9.70;6.70;;;;;;;;;;5390229;26;20484;-88
2024/04/14 09:01:58;;;;;;;13.13;6.87;;;;;;;;;;5399887;26;20462;-87
2024/04/14 09:04:24;;;;;;;7.97;6.17;;;;;;;;;;5391175;26;21012;-88
2024/04/14 09:06:50;;;;;;;10.73;7.60;;;;;;;;;;5412860;26;20586;-89
2024/04/14 09:09:16;;;;;;;9.17;6.67;;;;;;;;;;5397755;26;21052;-89
2024/04/14 09:11:49;;;;;;;7.27;6.10;;;;;;;;;;5395937;26;20458;-89
2024/04/14 09:14:15;;;;;;;7.70;5.70;;;;;;;;;;5395055;26;20465;-87
2024/04/14 09:16:41;;;;;;;7.50;6.20;;;;;;;;;;5395044;26;20592;-88
2024/04/14 09:19:07;;;;;;;8.40;6.50;;;;;;;;;;5405442;26;20461;-90
2024/04/14 09:21:33;;;;;;;8.20;6.30;;;;;;;;;;5403302;26;20440;-89
2024/04/14 09:23:59;;;;;;;14.77;6.30;;;;;;;;;;5396126;26;20444;-89
2024/04/14 09:26:26;;;;;;;7.40;6.63;;;;;;;;;;5405071;26;21065;-89
2024/04/14 09:29:04;;;;;;;8.87;6.20;;;;;;;;;;5401643;26;20480;-89
2024/04/14 09:31:30;;;;;;;6.10;5.50;;;;;;;;;;5405520;26;20508;-87
2024/04/14 09:33:56;;;;;;;6.20;5.00;;;;;;;;;;5408753;26;20468;-88
2024/04/14 09:36:26;;;;;;;6.17;5.53;;;;;;;;;;5404043;26;20457;-88
2024/04/14 09:38:53;;;;;;;5.23;4.67;;;;;;;;;;5400465;26;20547;-88
2024/04/14 09:41:19;;;;;;;6.10;4.50;;;;;;;;;;5391362;26;20553;-89
2024/04/14 09:43:45;;;;;;;4.83;4.23;;;;;;;;;;5403381;26;20510;-86
2024/04/14 09:46:11;;;;;;;9.03;5.10;;;;;;;;;;5406163;26;20491;-86
2024/04/14 09:48:37;;;;;;;5.23;4.83;;;;;;;;;;5406319;26;20441;-85
2024/04/14 09:51:03;;;;;;;11.43;6.17;;;;;;;;;;5394282;26;20494;-85
2024/04/14 09:53:31;;;;;;;6.23;5.50;;;;;;;;;;5406049;26;20832;-85
2024/04/14 09:55:58;;;;;;;5.37;5.00;;;;;;;;;;5394929;26;20500;-85
2024/04/14 09:58:24;;;;;;;6.20;5.33;;;;;;;;;;5405247;26;20470;-85
2024/04/14 10:00:51;;;;;;;8.90;5.17;;;;;;;;;;5403157;26;20499;-85
2024/04/14 10:03:18;;;;;;;5.40;5.00;;;;;;;;;;5402652;26;20822;-85
2024/04/14 10:05:44;;;;;;;5.23;4.20;;;;;;;;;;5409389;26;20504;-84
2024/04/14 10:08:11;;;;;;;5.80;4.43;;;;;;;;;;5411674;26;20449;-84
2024/04/14 10:10:37;;;;;;;5.23;4.77;;;;;;;;;;5409219;26;20489;-81
2024/04/14 10:13:07;;;;;;;5.43;4.93;;;;;;;;;;5405703;26;20512;-81
2024/04/14 10:15:33;;;;;;;5.40;5.00;;;;;;;;;;5408827;26;20450;-82
2024/04/14 10:18:09;;;;;;;6.47;5.87;;;;;;;;;;5402071;26;20489;-83
2024/04/14 10:20:44;;;;;;;5.20;4.80;;;;;;;;;;5403843;26;20497;-82
2024/04/14 10:23:15;;;;;;;5.70;4.67;;;;;;;;;;5403676;26;20429;-82
2024/04/14 10:25:46;;;;;;;8.23;5.63;;;;;;;;;;5402718;26;20558;-82
2024/04/14 10:28:15;;;;;;;5.80;5.40;;;;;;;;;;5409763;26;20453;-86
2024/04/14 10:30:41;;;;;;;6.73;6.00;;;;;;;;;;5405844;26;20818;-84
2024/04/14 10:33:10;;;;;;;6.10;5.60;;;;;;;;;;5389230;26;20454;-84
2024/04/14 10:35:36;;;;;;;6.10;5.50;;;;;;;;;;5407743;26;20451;-84
2024/04/14 10:38:02;;;;;;;6.17;5.77;;;;;;;;;;5410741;26;20472;-84
2024/04/14 10:40:28;;;;;;;6.50;5.90;;;;;;;;;;5400672;26;20426;-84
2024/04/14 10:42:54;;;;;;;6.97;5.83;;;;;;;;;;5408233;26;20458;-84
2024/04/14 10:45:27;;;;;;;10.00;5.83;;;;;;;;;;5406259;26;20432;-85
2024/04/14 10:47:55;;;;;;;7.33;6.63;;;;;;;;;;5404588;26;20792;-83
2024/04/14 10:50:21;;;;;;;7.87;6.53;;;;;;;;;;5402769;26;20446;-82
2024/04/14 10:52:47;;;;;;;6.80;6.10;;;;;;;;;;5410552;26;20540;-82
2024/04/14 10:55:13;;;;;;;5.60;5.20;;;;;;;;;;5410543;26;20444;-82
2024/04/14 10:57:39;;;;;;;7.67;6.97;;;;;;;;;;5405274;26;20466;-82
2024/04/14 11:00:05;;;;;;;6.10;5.50;;;;;;;;;;5385866;26;20524;-82
2024/04/14 11:02:31;;;;;;;7.37;5.60;;;;;;;;;;5401891;26;20505;-83
2024/04/14 11:04:57;;;;;;;6.20;5.60;;;;;;;;;;5410144;26;20448;-84
2024/04/14 11:07:23;;;;;;;6.53;6.00;;;;;;;;;;5405571;26;20767;-84
2024/04/14 11:09:50;;;;;;;7.67;6.60;;;;;;;;;;5407169;26;20557;-84
2024/04/14 11:12:16;;;;;;;10.27;5.97;;;;;;;;;;5393975;26;20438;-85
2024/04/14 11:14:44;;;;;;;12.87;6.20;;;;;;;;;;5410034;26;20892;-84
2024/04/14 11:17:14;;;;;;;9.60;6.10;;;;;;;;;;5405395;26;20843;-84
2024/04/14 11:19:40;;;;;;;13.10;6.50;;;;;;;;;;5395351;26;20441;-84
2024/04/14 11:22:06;;;;;;;7.50;6.20;;;;;;;;;;5403138;26;20478;-84
2024/04/14 11:24:36;;;;;;;7.60;6.70;;;;;;;;;;5415339;26;20461;-82
2024/04/14 11:27:03;;;;;;;7.20;6.47;;;;;;;;;;5411309;26;20574;-84
2024/04/14 11:29:29;;;;;;;9.13;7.00;;;;;;;;;;5400546;26;20857;-84
2024/04/14 11:31:55;;;;;;;6.87;6.27;;;;;;;;;;5412434;26;20485;-84
2024/04/14 11:34:22;;;;;;;8.43;6.20;;;;;;;;;;5403096;26;20897;-85
2024/04/14 11:36:48;;;;;;;6.80;6.10;;;;;;;;;;5397444;26;20448;-82
2024/04/14 11:39:14;;;;;;;6.73;5.87;;;;;;;;;;5400194;26;20553;-82
2024/04/14 11:41:40;;;;;;;7.13;6.53;;;;;;;;;;5406277;26;20426;-82
2024/04/14 11:44:08;;;;;;;9.67;7.17;;;;;;;;;;5407935;26;20413;-82
2024/04/14 11:46:34;;;;;;;7.77;5.97;;;;;;;;;;5403559;26;20466;-82
2024/04/14 11:49:00;;;;;;;6.83;6.13;;;;;;;;;;5414733;26;20457;-82
2024/04/14 11:51:26;;;;;;;6.97;6.30;;;;;;;;;;5410591;26;20924;-82
2024/04/14 11:53:52;;;;;;;7.17;6.57;;;;;;;;;;5403525;26;20484;-81
2024/04/14 11:56:18;;;;;;;7.30;6.60;;;;;;;;;;5401994;26;20429;-82
2024/04/14 11:58:44;;;;;;;7.37;6.67;;;;;;;;;;5399903;26;20453;-82
2024/04/14 12:01:10;;;;;;;6.40;5.53;;;;;;;;;;5401718;26;20804;-83
2024/04/14 12:03:36;;;;;;;8.00;6.63;;;;;;;;;;5405406;26;20485;-83
2024/04/14 12:06:02;;;;;;;8.30;7.37;;;;;;;;;;5395062;26;20450;-83
2024/04/14 12:08:28;;;;;;;9.17;6.47;;;;;;;;;;5399644;26;20468;-82
2024/04/14 12:10:54;;;;;;;10.60;6.43;;;;;;;;;;5394639;26;20504;-83
2024/04/14 12:13:19;;;;;;;7.60;6.00;;;;;;;;;;5405670;26;20495;-83
2024/04/14 12:15:48;;;;;;;7.37;6.57;;;;;;;;;;5397690;26;20763;-83
2024/04/14 12:18:14;;;;;;;8.13;6.73;;;;;;;;;;5398545;26;20432;-82
2024/04/14 12:20:40;;;;;;;10.00;7.67;;;;;;;;;;5395562;26;20502;-82
2024/04/14 12:23:06;;;;;;;8.03;7.37;;;;;;;;;;5406247;26;20581;-83
2024/04/14 12:25:32;;;;;;;8.27;7.17;;;;;;;;;;5401044;26;21267;-84
2024/04/14 12:27:58;;;;;;;8.33;7.30;;;;;;;;;;5395065;26;20456;-84
2024/04/14 12:30:24;;;;;;;7.37;6.67;;;;;;;;;;5394655;26;20462;-84
2024/04/14 12:32:50;;;;;;;9.23;6.43;;;;;;;;;;5410089;26;20614;-85
2024/04/14 12:35:16;;;;;;;8.63;6.50;;;;;;;;;;5394089;26;20573;-84
2024/04/14 12:37:43;;;;;;;8.20;7.37;;;;;;;;;;5404697;26;20571;-85
2024/04/14 12:40:09;;;;;;;8.00;7.30;;;;;;;;;;5401360;26;20465;-84
2024/04/14 12:42:35;;;;;;;7.87;7.17;;;;;;;;;;5401482;26;20489;-85
2024/04/14 12:45:01;;;;;;;9.43;6.50;;;;;;;;;;5404403;26;21014;-85
2024/04/14 12:47:27;;;;;;;6.40;5.80;;;;;;;;;;5405215;26;20962;-85
2024/04/14 12:49:55;;;;;;;6.83;6.13;;;;;;;;;;5391352;26;20924;-85
2024/04/14 12:52:21;;;;;;;8.37;6.63;;;;;;;;;;5400527;26;20608;-84
2024/04/14 12:54:47;;;;;;;7.60;6.93;;;;;;;;;;5408176;26;20472;-84
2024/04/14 12:57:13;;;;;;;7.97;7.23;;;;;;;;;;5395162;26;20601;-85
2024/04/14 12:59:39;;;;;;;6.80;6.30;;;;;;;;;;5413902;26;22525;-84
2024/04/14 13:02:05;;;;;;;7.53;6.30;;;;;;;;;;5400763;26;20472;-86
2024/04/14 13:04:31;;;;;;;6.80;6.23;;;;;;;;;;5406309;26;20524;-85
2024/04/14 13:06:57;;;;;;;7.83;7.03;;;;;;;;;;5406317;26;20574;-86
2024/04/14 13:09:23;;;;;;;7.90;6.37;;;;;;;;;;5418484;26;20805;-86
2024/04/14 13:11:49;;;;;;;10.27;6.30;;;;;;;;;;5396074;26;20880;-86
2024/04/14 13:14:15;;;;;;;8.03;7.30;;;;;;;;;;5414241;26;20567;-86
2024/04/14 13:16:41;;;;;;;7.43;6.67;;;;;;;;;;5395994;26;20454;-85
2024/04/14 13:19:07;;;;;;;7.70;6.70;;;;;;;;;;5411659;26;20424;-85
2024/04/14 13:21:33;;;;;;;8.93;7.20;;;;;;;;;;5405123;26;20983;-86
2024/04/14 13:23:59;;;;;;;7.17;6.57;;;;;;;;;;5401573;26;20490;-85
2024/04/14 13:26:27;;;;;;;6.63;6.03;;;;;;;;;;5401789;26;20487;-86
2024/04/14 13:28:53;;;;;;;10.60;6.63;;;;;;;;;;5397229;26;20532;-85
2024/04/14 13:31:19;;;;;;;7.30;6.13;;;;;;;;;;5407157;26;20476;-86
2024/04/14 13:33:46;;;;;;;6.30;5.90;;;;;;;;;;5397291;26;20484;-85
2024/04/14 13:36:12;;;;;;;8.63;5.63;;;;;;;;;;5413568;26;20456;-86
2024/04/14 13:38:38;;;;;;;6.10;5.50;;;;;;;;;;5405394;26;21041;-85
2024/04/14 13:41:06;;;;;;;7.33;6.63;;;;;;;;;;5404670;26;20579;-85
2024/04/14 13:43:32;;;;;;;5.47;5.03;;;;;;;;;;5400361;26;20961;-85
2024/04/14 13:45:58;;;;;;;8.00;5.97;;;;;;;;;;5408410;26;20526;-85
2024/04/14 13:48:24;;;;;;;7.00;6.40;;;;;;;;;;5410618;26;20991;-86
2024/04/14 13:50:50;;;;;;;8.50;5.70;;;;;;;;;;5398632;26;20457;-86
2024/04/14 13:53:16;;;;;;;6.30;5.70;;;;;;;;;;5404101;26;20512;-86
2024/04/14 13:55:42;;;;;;;5.67;5.20;;;;;;;;;;5393261;26;20519;-85
2024/04/14 13:58:08;;;;;;;6.83;5.93;;;;;;;;;;5402444;26;20466;-87
2024/04/14 14:00:40;;;;;;;6.70;6.00;;;;;;;;;;5410624;26;20438;-86
2024/04/14 14:03:06;;;;;;;8.40;6.87;;;;;;;;;;5400766;26;20458;-83
2024/04/14 14:05:32;;;;;;;6.47;5.97;;;;;;;;;;5399085;26;21291;-84
2024/04/14 14:07:59;;;;;;;6.27;5.77;;;;;;;;;;5394937;26;20511;-83
2024/04/14 14:10:25;;;;;;;5.87;5.50;;;;;;;;;;5413604;26;20572;-84
2024/04/14 14:12:51;;;;;;;7.10;6.50;;;;;;;;;;5403653;26;20445;-82
2024/04/14 14:15:17;;;;;;;7.10;6.40;;;;;;;;;;5411972;26;20521;-84
2024/04/14 14:17:43;;;;;;;6.40;5.80;;;;;;;;;;5393220;26;21028;-82
2024/04/14 14:20:09;;;;;;;7.13;6.17;;;;;;;;;;5388434;26;20462;-83
2024/04/14 14:22:35;;;;;;;11.03;5.97;;;;;;;;;;5394706;26;20486;-83
2024/04/14 14:25:01;;;;;;;8.07;5.80;;;;;;;;;;5397091;26;20430;-83
2024/04/14 14:27:27;;;;;;;6.20;5.60;;;;;;;;;;5414151;26;20428;-83
2024/04/14 14:29:53;;;;;;;6.97;6.10;;;;;;;;;;5404463;26;20588;-82
2024/04/14 14:32:19;;;;;;;9.10;5.17;;;;;;;;;;5392654;26;20506;-83
2024/04/14 14:37:29;;;;;;;7.43;5.70;;;;;;;;;;5406840;26;20581;-83
2024/04/14 14:39:55;;;;;;;9.10;5.83;;;;;;;;;;5407930;26;20466;-83